sensor_id;sensor_type;location;lat;lon;timestamp;P1;durP1;ratioP1;P2;durP2;ratioP2
11127;SDS011;5618;51.028;5.234;2022-07-26T00:02:24;1.80;;;0.73;;
11127;SDS011;5618;51.028;5.234;2022-07-26T00:04:50;2.35;;;0.80;;
11127;SDS011;5618;51.028;5.234;2022-07-26T00:07:15;2.67;;;0.68;;
11127;SDS011;5618;51.028;5.234;2022-07-26T00:09:41;3.28;;;1.00;;
11127;SDS011;5618;51.028;5.234;2022-07-26T00:12:08;0.95;;;0.45;;
11127;SDS011;5618;51.028;5.234;2022-07-26T00:14:34;2.28;;;0.52;;
11127;SDS011;5618;51.028;5.234;2022-07-26T00:17:01;2.38;;;0.93;;
11127;SDS011;5618;51.028;5.234;2022-07-26T00:19:28;1.95;;;0.95;;
11127;SDS011;5618;51.028;5.234;2022-07-26T00:21:53;2.92;;;1.13;;
11127;SDS011;5618;51.028;5.234;2022-07-26T00:24:37;4.10;;;1.10;;
11127;SDS011;5618;51.028;5.234;2022-07-26T00:27:03;1.25;;;0.60;;
11127;SDS011;5618;51.028;5.234;2022-07-26T00:29:29;1.38;;;0.77;;
11127;SDS011;5618;51.028;5.234;2022-07-26T00:31:55;2.35;;;1.05;;
11127;SDS011;5618;51.028;5.234;2022-07-26T00:34:21;1.00;;;0.50;;
11127;SDS011;5618;51.028;5.234;2022-07-26T00:36:47;4.95;;;1.25;;
11127;SDS011;5618;51.028;5.234;2022-07-26T00:39:12;0.98;;;0.75;;
11127;SDS011;5618;51.028;5.234;2022-07-26T00:41:38;1.58;;;0.65;;
11127;SDS011;5618;51.028;5.234;2022-07-26T00:44:04;3.45;;;0.77;;
11127;SDS011;5618;51.028;5.234;2022-07-26T00:46:29;1.77;;;0.93;;
11127;SDS011;5618;51.028;5.234;2022-07-26T00:48:55;2.17;;;0.90;;
11127;SDS011;5618;51.028;5.234;2022-07-26T00:51:21;1.63;;;0.70;;
11127;SDS011;5618;51.028;5.234;2022-07-26T00:53:47;5.18;;;1.02;;
11127;SDS011;5618;51.028;5.234;2022-07-26T00:56:13;3.15;;;0.88;;
11127;SDS011;5618;51.028;5.234;2022-07-26T00:58:41;1.40;;;0.82;;
11127;SDS011;5618;51.028;5.234;2022-07-26T01:01:07;3.50;;;1.02;;
11127;SDS011;5618;51.028;5.234;2022-07-26T01:03:33;1.70;;;0.77;;
11127;SDS011;5618;51.028;5.234;2022-07-26T01:05:59;2.30;;;1.27;;
11127;SDS011;5618;51.028;5.234;2022-07-26T01:08:25;3.13;;;0.98;;
11127;SDS011;5618;51.028;5.234;2022-07-26T01:10:51;4.13;;;0.88;;
11127;SDS011;5618;51.028;5.234;2022-07-26T01:13:20;2.45;;;1.17;;
11127;SDS011;5618;51.028;5.234;2022-07-26T01:15:46;2.35;;;0.70;;
11127;SDS011;5618;51.028;5.234;2022-07-26T01:18:12;2.28;;;1.05;;
11127;SDS011;5618;51.028;5.234;2022-07-26T01:20:38;3.60;;;1.08;;
11127;SDS011;5618;51.028;5.234;2022-07-26T01:23:06;3.92;;;0.93;;
11127;SDS011;5618;51.028;5.234;2022-07-26T01:25:33;1.95;;;0.98;;
11127;SDS011;5618;51.028;5.234;2022-07-26T01:28:01;3.30;;;1.23;;
11127;SDS011;5618;51.028;5.234;2022-07-26T01:30:26;4.15;;;1.48;;
11127;SDS011;5618;51.028;5.234;2022-07-26T01:32:52;1.48;;;0.90;;
11127;SDS011;5618;51.028;5.234;2022-07-26T01:35:18;4.82;;;2.25;;
11127;SDS011;5618;51.028;5.234;2022-07-26T01:37:44;3.53;;;1.00;;
11127;SDS011;5618;51.028;5.234;2022-07-26T01:40:10;2.05;;;1.02;;
11127;SDS011;5618;51.028;5.234;2022-07-26T01:42:35;2.97;;;1.10;;
11127;SDS011;5618;51.028;5.234;2022-07-26T01:45:05;6.28;;;1.13;;
11127;SDS011;5618;51.028;5.234;2022-07-26T01:47:35;1.05;;;0.95;;
11127;SDS011;5618;51.028;5.234;2022-07-26T01:50:01;2.60;;;1.35;;
11127;SDS011;5618;51.028;5.234;2022-07-26T01:52:28;4.60;;;1.35;;
11127;SDS011;5618;51.028;5.234;2022-07-26T01:54:54;3.45;;;1.27;;
11127;SDS011;5618;51.028;5.234;2022-07-26T01:57:19;2.90;;;1.20;;
11127;SDS011;5618;51.028;5.234;2022-07-26T01:59:45;3.00;;;1.40;;
11127;SDS011;5618;51.028;5.234;2022-07-26T02:02:11;2.78;;;1.38;;
11127;SDS011;5618;51.028;5.234;2022-07-26T02:04:36;2.47;;;0.85;;
11127;SDS011;5618;51.028;5.234;2022-07-26T02:07:21;3.35;;;1.30;;
11127;SDS011;5618;51.028;5.234;2022-07-26T02:09:46;4.20;;;1.55;;
11127;SDS011;5618;51.028;5.234;2022-07-26T02:12:12;3.33;;;1.30;;
11127;SDS011;5618;51.028;5.234;2022-07-26T02:14:38;2.35;;;1.20;;
11127;SDS011;5618;51.028;5.234;2022-07-26T02:17:03;3.40;;;1.27;;
11127;SDS011;5618;51.028;5.234;2022-07-26T02:19:29;5.32;;;1.63;;
11127;SDS011;5618;51.028;5.234;2022-07-26T02:21:55;3.00;;;1.17;;
11127;SDS011;5618;51.028;5.234;2022-07-26T02:24:22;3.90;;;1.40;;
11127;SDS011;5618;51.028;5.234;2022-07-26T02:26:48;5.55;;;1.60;;
11127;SDS011;5618;51.028;5.234;2022-07-26T02:29:14;4.28;;;1.27;;
11127;SDS011;5618;51.028;5.234;2022-07-26T02:31:39;4.53;;;1.40;;
11127;SDS011;5618;51.028;5.234;2022-07-26T02:34:05;4.03;;;1.33;;
11127;SDS011;5618;51.028;5.234;2022-07-26T02:36:31;2.85;;;1.02;;
11127;SDS011;5618;51.028;5.234;2022-07-26T02:38:56;4.57;;;1.60;;
11127;SDS011;5618;51.028;5.234;2022-07-26T02:41:22;2.30;;;0.93;;
11127;SDS011;5618;51.028;5.234;2022-07-26T02:43:47;7.25;;;1.38;;
11127;SDS011;5618;51.028;5.234;2022-07-26T02:46:13;4.05;;;1.17;;
11127;SDS011;5618;51.028;5.234;2022-07-26T02:48:39;8.25;;;1.10;;
11127;SDS011;5618;51.028;5.234;2022-07-26T02:51:04;3.22;;;1.27;;
11127;SDS011;5618;51.028;5.234;2022-07-26T02:53:30;4.45;;;1.25;;
11127;SDS011;5618;51.028;5.234;2022-07-26T02:55:56;3.25;;;1.13;;
11127;SDS011;5618;51.028;5.234;2022-07-26T02:58:22;4.13;;;1.75;;
11127;SDS011;5618;51.028;5.234;2022-07-26T03:00:49;3.88;;;1.30;;
11127;SDS011;5618;51.028;5.234;2022-07-26T03:03:14;3.85;;;1.20;;
11127;SDS011;5618;51.028;5.234;2022-07-26T03:05:40;3.83;;;1.27;;
11127;SDS011;5618;51.028;5.234;2022-07-26T03:08:06;3.63;;;0.82;;
11127;SDS011;5618;51.028;5.234;2022-07-26T03:10:32;2.53;;;1.50;;
11127;SDS011;5618;51.028;5.234;2022-07-26T03:12:58;1.98;;;1.27;;
11127;SDS011;5618;51.028;5.234;2022-07-26T03:15:24;3.55;;;1.27;;
11127;SDS011;5618;51.028;5.234;2022-07-26T03:17:49;3.78;;;1.20;;
11127;SDS011;5618;51.028;5.234;2022-07-26T03:20:15;1.70;;;1.20;;
11127;SDS011;5618;51.028;5.234;2022-07-26T03:22:41;3.67;;;1.38;;
11127;SDS011;5618;51.028;5.234;2022-07-26T03:25:07;4.10;;;1.15;;
11127;SDS011;5618;51.028;5.234;2022-07-26T03:27:33;1.25;;;0.80;;
11127;SDS011;5618;51.028;5.234;2022-07-26T03:29:59;2.50;;;1.48;;
11127;SDS011;5618;51.028;5.234;2022-07-26T03:32:25;2.50;;;1.25;;
11127;SDS011;5618;51.028;5.234;2022-07-26T03:35:06;4.97;;;1.35;;
11127;SDS011;5618;51.028;5.234;2022-07-26T03:37:33;3.85;;;1.48;;
11127;SDS011;5618;51.028;5.234;2022-07-26T03:39:58;2.63;;;1.33;;
11127;SDS011;5618;51.028;5.234;2022-07-26T03:42:24;1.48;;;1.00;;
11127;SDS011;5618;51.028;5.234;2022-07-26T03:44:50;2.10;;;1.02;;
11127;SDS011;5618;51.028;5.234;2022-07-26T03:47:15;2.75;;;1.10;;
11127;SDS011;5618;51.028;5.234;2022-07-26T03:49:41;4.07;;;1.73;;
11127;SDS011;5618;51.028;5.234;2022-07-26T03:52:07;4.18;;;1.10;;
11127;SDS011;5618;51.028;5.234;2022-07-26T03:54:35;4.82;;;1.30;;
11127;SDS011;5618;51.028;5.234;2022-07-26T03:57:00;3.47;;;2.10;;
11127;SDS011;5618;51.028;5.234;2022-07-26T03:59:26;4.53;;;1.25;;
11127;SDS011;5618;51.028;5.234;2022-07-26T04:01:52;2.08;;;0.98;;
11127;SDS011;5618;51.028;5.234;2022-07-26T04:04:17;5.70;;;1.30;;
11127;SDS011;5618;51.028;5.234;2022-07-26T04:06:44;7.45;;;1.60;;
11127;SDS011;5618;51.028;5.234;2022-07-26T04:09:11;2.80;;;1.15;;
11127;SDS011;5618;51.028;5.234;2022-07-26T04:11:37;3.58;;;1.00;;
11127;SDS011;5618;51.028;5.234;2022-07-26T04:14:04;2.58;;;1.15;;
11127;SDS011;5618;51.028;5.234;2022-07-26T04:16:30;1.60;;;0.93;;
11127;SDS011;5618;51.028;5.234;2022-07-26T04:18:56;4.93;;;1.45;;
11127;SDS011;5618;51.028;5.234;2022-07-26T04:21:22;7.03;;;1.77;;
11127;SDS011;5618;51.028;5.234;2022-07-26T04:23:47;3.33;;;1.58;;
11127;SDS011;5618;51.028;5.234;2022-07-26T04:26:13;4.45;;;1.73;;
11127;SDS011;5618;51.028;5.234;2022-07-26T04:28:42;2.28;;;0.90;;
11127;SDS011;5618;51.028;5.234;2022-07-26T04:31:08;4.15;;;2.00;;
11127;SDS011;5618;51.028;5.234;2022-07-26T04:33:33;5.70;;;1.25;;
11127;SDS011;5618;51.028;5.234;2022-07-26T04:36:00;3.88;;;1.45;;
11127;SDS011;5618;51.028;5.234;2022-07-26T04:38:26;5.25;;;1.75;;
11127;SDS011;5618;51.028;5.234;2022-07-26T04:40:52;3.22;;;1.20;;
11127;SDS011;5618;51.028;5.234;2022-07-26T04:43:17;4.13;;;1.55;;
11127;SDS011;5618;51.028;5.234;2022-07-26T04:45:46;4.00;;;1.17;;
11127;SDS011;5618;51.028;5.234;2022-07-26T04:48:13;4.35;;;1.42;;
11127;SDS011;5618;51.028;5.234;2022-07-26T04:50:39;5.82;;;1.45;;
11127;SDS011;5618;51.028;5.234;2022-07-26T04:53:05;1.60;;;1.20;;
11127;SDS011;5618;51.028;5.234;2022-07-26T04:55:31;2.13;;;1.30;;
11127;SDS011;5618;51.028;5.234;2022-07-26T04:57:57;3.60;;;1.27;;
11127;SDS011;5618;51.028;5.234;2022-07-26T05:00:23;3.13;;;1.10;;
11127;SDS011;5618;51.028;5.234;2022-07-26T05:02:49;8.13;;;1.67;;
11127;SDS011;5618;51.028;5.234;2022-07-26T05:05:20;4.43;;;1.60;;
11127;SDS011;5618;51.028;5.234;2022-07-26T05:07:50;3.63;;;1.52;;
11127;SDS011;5618;51.028;5.234;2022-07-26T05:10:18;1.90;;;1.30;;
11127;SDS011;5618;51.028;5.234;2022-07-26T05:12:46;3.28;;;1.30;;
11127;SDS011;5618;51.028;5.234;2022-07-26T05:15:12;2.17;;;1.48;;
11127;SDS011;5618;51.028;5.234;2022-07-26T05:17:39;3.25;;;1.52;;
11127;SDS011;5618;51.028;5.234;2022-07-26T05:20:07;4.57;;;1.25;;
11127;SDS011;5618;51.028;5.234;2022-07-26T05:22:34;3.45;;;1.70;;
11127;SDS011;5618;51.028;5.234;2022-07-26T05:25:00;4.68;;;1.50;;
11127;SDS011;5618;51.028;5.234;2022-07-26T05:27:26;5.22;;;1.60;;
11127;SDS011;5618;51.028;5.234;2022-07-26T05:29:52;5.80;;;1.55;;
11127;SDS011;5618;51.028;5.234;2022-07-26T05:32:18;6.45;;;1.80;;
11127;SDS011;5618;51.028;5.234;2022-07-26T05:34:44;4.40;;;1.27;;
11127;SDS011;5618;51.028;5.234;2022-07-26T05:37:10;2.58;;;1.50;;
11127;SDS011;5618;51.028;5.234;2022-07-26T05:39:36;6.47;;;1.75;;
11127;SDS011;5618;51.028;5.234;2022-07-26T05:42:02;5.72;;;1.95;;
11127;SDS011;5618;51.028;5.234;2022-07-26T05:44:28;5.68;;;1.80;;
11127;SDS011;5618;51.028;5.234;2022-07-26T05:46:53;6.20;;;1.38;;
11127;SDS011;5618;51.028;5.234;2022-07-26T05:49:19;6.70;;;1.63;;
11127;SDS011;5618;51.028;5.234;2022-07-26T05:51:45;1.98;;;1.30;;
11127;SDS011;5618;51.028;5.234;2022-07-26T05:54:10;4.03;;;1.75;;
11127;SDS011;5618;51.028;5.234;2022-07-26T05:56:36;4.93;;;1.80;;
11127;SDS011;5618;51.028;5.234;2022-07-26T05:59:02;3.47;;;1.42;;
11127;SDS011;5618;51.028;5.234;2022-07-26T06:01:27;8.35;;;2.20;;
11127;SDS011;5618;51.028;5.234;2022-07-26T06:03:57;5.55;;;1.70;;
11127;SDS011;5618;51.028;5.234;2022-07-26T06:06:23;3.78;;;1.90;;
11127;SDS011;5618;51.028;5.234;2022-07-26T06:08:49;8.32;;;1.52;;
11127;SDS011;5618;51.028;5.234;2022-07-26T06:11:15;6.63;;;2.15;;
11127;SDS011;5618;51.028;5.234;2022-07-26T06:13:41;5.15;;;1.95;;
11127;SDS011;5618;51.028;5.234;2022-07-26T06:16:06;6.78;;;2.03;;
11127;SDS011;5618;51.028;5.234;2022-07-26T06:18:32;6.15;;;2.05;;
11127;SDS011;5618;51.028;5.234;2022-07-26T06:20:58;3.83;;;1.60;;
11127;SDS011;5618;51.028;5.234;2022-07-26T06:23:24;5.40;;;1.80;;
11127;SDS011;5618;51.028;5.234;2022-07-26T06:25:50;5.28;;;2.00;;
11127;SDS011;5618;51.028;5.234;2022-07-26T06:28:15;5.18;;;1.95;;
11127;SDS011;5618;51.028;5.234;2022-07-26T06:30:42;4.97;;;2.00;;
11127;SDS011;5618;51.028;5.234;2022-07-26T06:33:08;6.03;;;2.25;;
11127;SDS011;5618;51.028;5.234;2022-07-26T06:35:35;2.30;;;1.50;;
11127;SDS011;5618;51.028;5.234;2022-07-26T06:38:03;3.38;;;1.90;;
11127;SDS011;5618;51.028;5.234;2022-07-26T06:40:29;8.32;;;2.40;;
11127;SDS011;5618;51.028;5.234;2022-07-26T06:42:55;8.43;;;2.15;;
11127;SDS011;5618;51.028;5.234;2022-07-26T06:45:21;7.85;;;2.25;;
11127;SDS011;5618;51.028;5.234;2022-07-26T06:47:47;7.50;;;2.13;;
11127;SDS011;5618;51.028;5.234;2022-07-26T06:50:12;5.55;;;2.10;;
11127;SDS011;5618;51.028;5.234;2022-07-26T06:52:38;6.07;;;2.47;;
11127;SDS011;5618;51.028;5.234;2022-07-26T06:55:04;5.03;;;1.60;;
11127;SDS011;5618;51.028;5.234;2022-07-26T06:57:31;4.07;;;1.83;;
11127;SDS011;5618;51.028;5.234;2022-07-26T06:59:56;2.88;;;2.20;;
11127;SDS011;5618;51.028;5.234;2022-07-26T07:02:22;6.32;;;2.08;;
11127;SDS011;5618;51.028;5.234;2022-07-26T07:04:48;6.40;;;2.15;;
11127;SDS011;5618;51.028;5.234;2022-07-26T07:07:13;5.30;;;2.50;;
11127;SDS011;5618;51.028;5.234;2022-07-26T07:09:39;6.00;;;2.15;;
11127;SDS011;5618;51.028;5.234;2022-07-26T07:12:05;6.60;;;2.10;;
11127;SDS011;5618;51.028;5.234;2022-07-26T07:14:31;4.68;;;1.80;;
11127;SDS011;5618;51.028;5.234;2022-07-26T07:16:57;4.68;;;1.83;;
11127;SDS011;5618;51.028;5.234;2022-07-26T07:19:24;4.53;;;1.77;;
11127;SDS011;5618;51.028;5.234;2022-07-26T07:21:49;6.63;;;1.90;;
11127;SDS011;5618;51.028;5.234;2022-07-26T07:24:15;6.05;;;2.00;;
11127;SDS011;5618;51.028;5.234;2022-07-26T07:26:41;5.20;;;1.85;;
11127;SDS011;5618;51.028;5.234;2022-07-26T07:29:07;6.18;;;2.05;;
11127;SDS011;5618;51.028;5.234;2022-07-26T07:31:38;5.03;;;1.98;;
11127;SDS011;5618;51.028;5.234;2022-07-26T07:34:05;5.78;;;2.35;;
11127;SDS011;5618;51.028;5.234;2022-07-26T07:36:30;4.38;;;1.75;;
11127;SDS011;5618;51.028;5.234;2022-07-26T07:38:56;4.25;;;1.85;;
11127;SDS011;5618;51.028;5.234;2022-07-26T07:41:22;1.83;;;1.33;;
11127;SDS011;5618;51.028;5.234;2022-07-26T07:43:47;5.30;;;1.73;;
11127;SDS011;5618;51.028;5.234;2022-07-26T07:46:13;3.75;;;1.50;;
11127;SDS011;5618;51.028;5.234;2022-07-26T07:48:39;5.28;;;1.70;;
11127;SDS011;5618;51.028;5.234;2022-07-26T07:51:06;6.70;;;1.30;;
11127;SDS011;5618;51.028;5.234;2022-07-26T07:53:32;4.50;;;1.52;;
11127;SDS011;5618;51.028;5.234;2022-07-26T07:55:57;2.60;;;1.45;;
11127;SDS011;5618;51.028;5.234;2022-07-26T07:58:23;4.47;;;1.30;;
11127;SDS011;5618;51.028;5.234;2022-07-26T08:00:49;2.58;;;0.95;;
11127;SDS011;5618;51.028;5.234;2022-07-26T08:03:15;6.88;;;1.70;;
11127;SDS011;5618;51.028;5.234;2022-07-26T08:05:41;2.10;;;1.08;;
11127;SDS011;5618;51.028;5.234;2022-07-26T08:08:06;1.65;;;1.55;;
11127;SDS011;5618;51.028;5.234;2022-07-26T08:10:32;4.07;;;1.52;;
11127;SDS011;5618;51.028;5.234;2022-07-26T08:12:58;2.88;;;1.13;;
11127;SDS011;5618;51.028;5.234;2022-07-26T08:15:24;2.25;;;1.55;;
11127;SDS011;5618;51.028;5.234;2022-07-26T08:17:51;2.92;;;1.50;;
11127;SDS011;5618;51.028;5.234;2022-07-26T08:20:17;6.03;;;1.73;;
11127;SDS011;5618;51.028;5.234;2022-07-26T08:22:43;1.42;;;1.17;;
11127;SDS011;5618;51.028;5.234;2022-07-26T08:25:09;4.32;;;1.40;;
11127;SDS011;5618;51.028;5.234;2022-07-26T08:27:35;4.65;;;1.65;;
11127;SDS011;5618;51.028;5.234;2022-07-26T08:30:01;2.55;;;1.35;;
11127;SDS011;5618;51.028;5.234;2022-07-26T08:32:26;3.67;;;1.25;;
11127;SDS011;5618;51.028;5.234;2022-07-26T08:34:52;3.53;;;1.00;;
11127;SDS011;5618;51.028;5.234;2022-07-26T08:37:18;3.80;;;1.23;;
11127;SDS011;5618;51.028;5.234;2022-07-26T08:39:44;5.45;;;2.05;;
11127;SDS011;5618;51.028;5.234;2022-07-26T08:42:14;3.45;;;1.70;;
11127;SDS011;5618;51.028;5.234;2022-07-26T08:44:42;2.75;;;1.50;;
11127;SDS011;5618;51.028;5.234;2022-07-26T08:47:10;6.57;;;1.50;;
11127;SDS011;5618;51.028;5.234;2022-07-26T08:49:37;1.85;;;1.45;;
11127;SDS011;5618;51.028;5.234;2022-07-26T08:52:03;2.80;;;1.88;;
11127;SDS011;5618;51.028;5.234;2022-07-26T08:54:30;2.00;;;1.27;;
11127;SDS011;5618;51.028;5.234;2022-07-26T08:56:55;2.50;;;1.23;;
11127;SDS011;5618;51.028;5.234;2022-07-26T08:59:22;3.42;;;1.48;;
11127;SDS011;5618;51.028;5.234;2022-07-26T09:01:55;4.70;;;1.52;;
11127;SDS011;5618;51.028;5.234;2022-07-26T09:04:22;2.97;;;1.35;;
11127;SDS011;5618;51.028;5.234;2022-07-26T09:06:53;2.58;;;1.27;;
11127;SDS011;5618;51.028;5.234;2022-07-26T09:09:26;5.10;;;1.90;;
11127;SDS011;5618;51.028;5.234;2022-07-26T09:11:52;1.90;;;1.52;;
11127;SDS011;5618;51.028;5.234;2022-07-26T09:14:20;4.90;;;1.73;;
11127;SDS011;5618;51.028;5.234;2022-07-26T09:16:56;4.85;;;1.60;;
11127;SDS011;5618;51.028;5.234;2022-07-26T09:19:23;3.92;;;1.95;;
11127;SDS011;5618;51.028;5.234;2022-07-26T09:21:51;2.90;;;1.58;;
11127;SDS011;5618;51.028;5.234;2022-07-26T09:26:57;2.60;;;1.67;;
11127;SDS011;5618;51.028;5.234;2022-07-26T09:29:25;3.83;;;1.88;;
11127;SDS011;5618;51.028;5.234;2022-07-26T09:34:51;3.60;;;2.00;;
11127;SDS011;5618;51.028;5.234;2022-07-26T09:37:18;6.85;;;2.10;;
11127;SDS011;5618;51.028;5.234;2022-07-26T09:39:58;4.18;;;1.33;;
11127;SDS011;5618;51.028;5.234;2022-07-26T09:42:26;7.55;;;2.13;;
11127;SDS011;5618;51.028;5.234;2022-07-26T09:44:55;8.02;;;2.05;;
11127;SDS011;5618;51.028;5.234;2022-07-26T09:47:22;1.88;;;1.10;;
11127;SDS011;5618;51.028;5.234;2022-07-26T09:50:15;2.40;;;1.70;;
11127;SDS011;5618;51.028;5.234;2022-07-26T09:52:56;3.85;;;2.22;;
11127;SDS011;5618;51.028;5.234;2022-07-26T09:55:21;2.13;;;1.60;;
11127;SDS011;5618;51.028;5.234;2022-07-26T09:57:48;3.90;;;1.75;;
11127;SDS011;5618;51.028;5.234;2022-07-26T10:00:16;4.40;;;1.60;;
11127;SDS011;5618;51.028;5.234;2022-07-26T10:02:43;3.15;;;1.85;;
11127;SDS011;5618;51.028;5.234;2022-07-26T10:05:09;3.03;;;1.50;;
11127;SDS011;5618;51.028;5.234;2022-07-26T10:07:35;4.38;;;1.63;;
11127;SDS011;5618;51.028;5.234;2022-07-26T10:10:09;4.18;;;1.67;;
11127;SDS011;5618;51.028;5.234;2022-07-26T10:12:39;5.15;;;1.80;;
11127;SDS011;5618;51.028;5.234;2022-07-26T10:18:12;2.30;;;1.80;;
11127;SDS011;5618;51.028;5.234;2022-07-26T10:21:20;1.77;;;1.67;;
11127;SDS011;5618;51.028;5.234;2022-07-26T10:23:50;1.58;;;1.30;;
11127;SDS011;5618;51.028;5.234;2022-07-26T10:29:23;4.88;;;1.92;;
11127;SDS011;5618;51.028;5.234;2022-07-26T10:34:39;2.25;;;1.70;;
11127;SDS011;5618;51.028;5.234;2022-07-26T10:37:06;4.00;;;1.88;;
11127;SDS011;5618;51.028;5.234;2022-07-26T10:39:34;1.40;;;1.30;;
11127;SDS011;5618;51.028;5.234;2022-07-26T10:42:02;2.13;;;1.48;;
11127;SDS011;5618;51.028;5.234;2022-07-26T10:44:30;2.38;;;1.88;;
11127;SDS011;5618;51.028;5.234;2022-07-26T10:49:29;1.70;;;1.60;;
11127;SDS011;5618;51.028;5.234;2022-07-26T10:52:10;2.42;;;1.60;;
11127;SDS011;5618;51.028;5.234;2022-07-26T10:57:23;4.30;;;1.45;;
11127;SDS011;5618;51.028;5.234;2022-07-26T10:59:56;4.47;;;1.55;;
11127;SDS011;5618;51.028;5.234;2022-07-26T11:02:29;2.97;;;1.20;;
11127;SDS011;5618;51.028;5.234;2022-07-26T11:07:28;3.05;;;1.48;;
11127;SDS011;5618;51.028;5.234;2022-07-26T11:09:58;2.05;;;1.17;;
11127;SDS011;5618;51.028;5.234;2022-07-26T11:12:25;1.63;;;1.00;;
11127;SDS011;5618;51.028;5.234;2022-07-26T11:14:51;1.15;;;1.10;;
11127;SDS011;5618;51.028;5.234;2022-07-26T11:17:22;2.38;;;1.20;;
11127;SDS011;5618;51.028;5.234;2022-07-26T11:19:49;2.00;;;1.40;;
11127;SDS011;5618;51.028;5.234;2022-07-26T11:22:15;1.65;;;1.50;;
11127;SDS011;5618;51.028;5.234;2022-07-26T11:24:41;3.00;;;1.63;;
11127;SDS011;5618;51.028;5.234;2022-07-26T11:27:07;4.07;;;1.63;;
11127;SDS011;5618;51.028;5.234;2022-07-26T11:29:33;3.63;;;1.45;;
11127;SDS011;5618;51.028;5.234;2022-07-26T11:32:00;4.95;;;1.73;;
11127;SDS011;5618;51.028;5.234;2022-07-26T11:34:27;1.95;;;0.93;;
11127;SDS011;5618;51.028;5.234;2022-07-26T11:36:56;2.67;;;1.10;;
11127;SDS011;5618;51.028;5.234;2022-07-26T11:39:23;2.85;;;1.05;;
11127;SDS011;5618;51.028;5.234;2022-07-26T11:42:00;1.95;;;0.85;;
11127;SDS011;5618;51.028;5.234;2022-07-26T11:44:31;0.73;;;0.73;;
11127;SDS011;5618;51.028;5.234;2022-07-26T11:46:57;0.77;;;0.70;;
11127;SDS011;5618;51.028;5.234;2022-07-26T11:49:24;1.25;;;1.00;;
11127;SDS011;5618;51.028;5.234;2022-07-26T11:51:59;1.27;;;1.15;;
11127;SDS011;5618;51.028;5.234;2022-07-26T11:54:27;1.38;;;1.05;;
11127;SDS011;5618;51.028;5.234;2022-07-26T11:59:25;2.40;;;1.20;;
11127;SDS011;5618;51.028;5.234;2022-07-26T12:01:53;4.35;;;1.30;;
11127;SDS011;5618;51.028;5.234;2022-07-26T12:04:21;4.75;;;1.45;;
11127;SDS011;5618;51.028;5.234;2022-07-26T12:06:48;3.47;;;1.85;;
11127;SDS011;5618;51.028;5.234;2022-07-26T12:09:33;1.67;;;1.58;;
11127;SDS011;5618;51.028;5.234;2022-07-26T12:11:59;6.10;;;1.23;;
11127;SDS011;5618;51.028;5.234;2022-07-26T12:14:33;2.72;;;1.50;;
11127;SDS011;5618;51.028;5.234;2022-07-26T12:19:36;2.88;;;1.83;;
11127;SDS011;5618;51.028;5.234;2022-07-26T12:22:07;1.55;;;1.45;;
11127;SDS011;5618;51.028;5.234;2022-07-26T12:24:39;1.25;;;1.20;;
11127;SDS011;5618;51.028;5.234;2022-07-26T12:27:19;1.70;;;1.60;;
11127;SDS011;5618;51.028;5.234;2022-07-26T12:29:47;1.98;;;1.27;;
11127;SDS011;5618;51.028;5.234;2022-07-26T12:32:17;1.60;;;1.50;;
11127;SDS011;5618;51.028;5.234;2022-07-26T12:34:59;2.75;;;1.48;;
11127;SDS011;5618;51.028;5.234;2022-07-26T12:37:27;3.50;;;1.65;;
11127;SDS011;5618;51.028;5.234;2022-07-26T12:39:58;1.63;;;1.35;;
11127;SDS011;5618;51.028;5.234;2022-07-26T12:42:41;3.95;;;1.63;;
11127;SDS011;5618;51.028;5.234;2022-07-26T12:45:16;1.45;;;1.35;;
11127;SDS011;5618;51.028;5.234;2022-07-26T12:47:44;0.90;;;0.90;;
11127;SDS011;5618;51.028;5.234;2022-07-26T12:50:12;1.50;;;1.40;;
11127;SDS011;5618;51.028;5.234;2022-07-26T12:52:39;1.45;;;1.35;;
11127;SDS011;5618;51.028;5.234;2022-07-26T12:55:06;1.48;;;1.38;;
11127;SDS011;5618;51.028;5.234;2022-07-26T12:57:34;2.22;;;1.50;;
11127;SDS011;5618;51.028;5.234;2022-07-26T12:59:59;1.20;;;1.20;;
11127;SDS011;5618;51.028;5.234;2022-07-26T13:02:25;1.40;;;1.30;;
11127;SDS011;5618;51.028;5.234;2022-07-26T13:04:51;1.85;;;0.70;;
11127;SDS011;5618;51.028;5.234;2022-07-26T13:07:18;1.13;;;1.02;;
11127;SDS011;5618;51.028;5.234;2022-07-26T13:09:44;2.55;;;1.40;;
11127;SDS011;5618;51.028;5.234;2022-07-26T13:12:11;1.65;;;1.20;;
11127;SDS011;5618;51.028;5.234;2022-07-26T13:14:38;1.30;;;1.20;;
11127;SDS011;5618;51.028;5.234;2022-07-26T13:17:04;1.35;;;0.90;;
11127;SDS011;5618;51.028;5.234;2022-07-26T13:19:31;1.95;;;1.25;;
11127;SDS011;5618;51.028;5.234;2022-07-26T13:21:58;1.20;;;1.10;;
11127;SDS011;5618;51.028;5.234;2022-07-26T13:24:24;1.63;;;1.50;;
11127;SDS011;5618;51.028;5.234;2022-07-26T13:26:51;2.78;;;1.30;;
11127;SDS011;5618;51.028;5.234;2022-07-26T13:29:17;1.50;;;1.40;;
11127;SDS011;5618;51.028;5.234;2022-07-26T13:31:43;1.33;;;1.10;;
11127;SDS011;5618;51.028;5.234;2022-07-26T13:34:10;1.58;;;1.20;;
11127;SDS011;5618;51.028;5.234;2022-07-26T13:36:35;2.30;;;1.25;;
11127;SDS011;5618;51.028;5.234;2022-07-26T13:39:01;1.30;;;1.20;;
11127;SDS011;5618;51.028;5.234;2022-07-26T13:41:28;1.35;;;1.15;;
11127;SDS011;5618;51.028;5.234;2022-07-26T13:43:54;0.85;;;0.85;;
11127;SDS011;5618;51.028;5.234;2022-07-26T13:46:20;0.98;;;0.95;;
11127;SDS011;5618;51.028;5.234;2022-07-26T13:48:46;2.25;;;1.10;;
11127;SDS011;5618;51.028;5.234;2022-07-26T13:51:12;2.67;;;0.95;;
11127;SDS011;5618;51.028;5.234;2022-07-26T13:53:38;0.70;;;0.70;;
11127;SDS011;5618;51.028;5.234;2022-07-26T13:56:03;0.80;;;0.80;;
11127;SDS011;5618;51.028;5.234;2022-07-26T13:58:30;0.90;;;0.75;;
11127;SDS011;5618;51.028;5.234;2022-07-26T14:00:56;0.75;;;0.75;;
11127;SDS011;5618;51.028;5.234;2022-07-26T14:03:22;0.63;;;0.63;;
11127;SDS011;5618;51.028;5.234;2022-07-26T14:05:48;0.65;;;0.60;;
11127;SDS011;5618;51.028;5.234;2022-07-26T14:08:14;2.15;;;1.23;;
11127;SDS011;5618;51.028;5.234;2022-07-26T14:10:40;1.45;;;1.35;;
11127;SDS011;5618;51.028;5.234;2022-07-26T14:13:06;0.60;;;0.60;;
11127;SDS011;5618;51.028;5.234;2022-07-26T14:15:32;0.73;;;0.70;;
11127;SDS011;5618;51.028;5.234;2022-07-26T14:17:58;0.90;;;0.60;;
11127;SDS011;5618;51.028;5.234;2022-07-26T14:20:25;0.40;;;0.40;;
11127;SDS011;5618;51.028;5.234;2022-07-26T14:22:51;0.60;;;0.60;;
11127;SDS011;5618;51.028;5.234;2022-07-26T14:25:20;0.50;;;0.50;;
11127;SDS011;5618;51.028;5.234;2022-07-26T14:27:48;0.70;;;0.70;;
11127;SDS011;5618;51.028;5.234;2022-07-26T14:30:15;0.45;;;0.45;;
11127;SDS011;5618;51.028;5.234;2022-07-26T14:32:40;0.60;;;0.60;;
11127;SDS011;5618;51.028;5.234;2022-07-26T14:35:06;1.75;;;0.60;;
11127;SDS011;5618;51.028;5.234;2022-07-26T14:37:33;0.47;;;0.47;;
11127;SDS011;5618;51.028;5.234;2022-07-26T14:39:58;0.93;;;0.60;;
11127;SDS011;5618;51.028;5.234;2022-07-26T14:42:24;0.50;;;0.50;;
11127;SDS011;5618;51.028;5.234;2022-07-26T14:44:50;0.40;;;0.40;;
11127;SDS011;5618;51.028;5.234;2022-07-26T14:47:16;0.40;;;0.40;;
11127;SDS011;5618;51.028;5.234;2022-07-26T14:49:41;0.47;;;0.47;;
11127;SDS011;5618;51.028;5.234;2022-07-26T14:52:07;0.77;;;0.63;;
11127;SDS011;5618;51.028;5.234;2022-07-26T14:54:34;0.52;;;0.52;;
11127;SDS011;5618;51.028;5.234;2022-07-26T14:56:59;1.27;;;0.63;;
11127;SDS011;5618;51.028;5.234;2022-07-26T14:59:25;1.00;;;0.68;;
11127;SDS011;5618;51.028;5.234;2022-07-26T15:01:51;1.38;;;0.65;;
11127;SDS011;5618;51.028;5.234;2022-07-26T15:04:17;1.00;;;0.68;;
11127;SDS011;5618;51.028;5.234;2022-07-26T15:06:43;0.32;;;0.32;;
11127;SDS011;5618;51.028;5.234;2022-07-26T15:09:08;2.88;;;0.80;;
11127;SDS011;5618;51.028;5.234;2022-07-26T15:11:34;2.55;;;0.82;;
11127;SDS011;5618;51.028;5.234;2022-07-26T15:14:00;0.95;;;0.60;;
11127;SDS011;5618;51.028;5.234;2022-07-26T15:16:25;1.63;;;0.90;;
11127;SDS011;5618;51.028;5.234;2022-07-26T15:18:51;0.82;;;0.60;;
11127;SDS011;5618;51.028;5.234;2022-07-26T15:21:17;0.77;;;0.63;;
11127;SDS011;5618;51.028;5.234;2022-07-26T15:23:42;2.03;;;0.77;;
11127;SDS011;5618;51.028;5.234;2022-07-26T15:26:08;2.03;;;1.05;;
11127;SDS011;5618;51.028;5.234;2022-07-26T15:28:34;2.50;;;1.00;;